Time;durP1;ratioP1;P1;durP2;ratioP2;P2;SDS_P1;SDS_P2;PMS_P1;PMS_P2;Temp;Humidity;BMP_temperature;BMP_pressure;BME280_temperature;BME280_humidity;BME280_pressure;Samples;Min_cycle;Max_cycle;Signal;HPM_P1;HPM_P2
2022/01/08 00:18:32;;;;;;;;;;;;;;;;;;;;;
2022/01/08 00:30:53;;;;;;;;;;;;;;;;;;;;;
2022/01/08 00:49:54;;;;;;;;;;;;;;;;;;;;;
2022/01/08 00:55:28;;;;;;;;;;;;;;;;;;;;;
2022/01/08 01:14:37;;;;;;;24.67;9.30;;;;;;;-8.07;100.00;99718.66;9717838;30;20047;-96
2022/01/08 01:20:47;;;;;;;;;;;;;;;;;;;;;
2022/01/08 01:27:06;;;;;;;;;;;;;;;;;;;;;
2022/01/08 01:57:13;;;;;;;;;;;;;;;;;;;;;
2022/01/08 02:03:34;;;;;;;;;;;;;;;;;;;;;
2022/01/08 02:40:51;;;;;;;19.33;8.73;;;;;;;-8.37;100.00;99560.72;9691709;30;20053;-94
2022/01/08 02:59:12;;;;;;;19.97;10.07;;;;;;;-4.24;100.00;100333.53;9840801;30;20485;-92
2022/01/08 03:05:27;;;;;;;;;;;;;;;;;;;;;
2022/01/08 03:11:44;;;;;;;;;;;;;;;;;;;;;
2022/01/08 03:24:08;;;;;;;;;;;;;;;;;;;;;
2022/01/08 03:30:29;;;;;;;;;;;;;;;;;;;;;
2022/01/08 03:36:26;;;;;;;;;;;;;;;;;;;;;
2022/01/08 03:42:02;;;;;;;;;;;;;;;;;;;;;
2022/01/08 03:52:57;;;;;;;;;;;;;;;;;;;;;
2022/01/08 04:04:52;;;;;;;;;;;;;;;;;;;;;
2022/01/08 04:42:26;;;;;;;;;;;;;;;;;;;;;
2022/01/08 04:48:27;;;;;;;;;;;;;;;;;;;;;
2022/01/08 05:00:55;;;;;;;;;;;;;;;;;;;;;
2022/01/08 05:07:10;;;;;;;;;;;;;;;;;;;;;
2022/01/08 05:19:31;;;;;;;;;;;;;;;;;;;;;
2022/01/08 05:25:18;;;;;;;18.50;7.70;;;;;;;-0.93;100.00;100845.63;9838295;30;20048;-92
2022/01/08 05:31:20;;;;;;;19.47;6.10;;;;;;;-8.96;100.00;99597.25;9812277;29;20075;-92
2022/01/08 05:36:53;;;;;;;;;;;;;;;;;;;;;
2022/01/08 05:48:43;;;;;;;;;;;;;;;;;;;;;
2022/01/08 05:54:33;;;;;;;18.73;6.07;;;;;;;-5.56;100.00;100221.81;9882210;29;20055;-91
2022/01/08 06:06:08;;;;;;;28.27;8.60;;;;;;;-5.98;100.00;100438.03;9836838;30;20584;-91
2022/01/08 06:11:57;;;;;;;;;;;;;;;;;;;;;
2022/01/08 06:18:01;;;;;;;;;;;;;;;;;;;;;
2022/01/08 06:23:47;;;;;;;;;;;;;;;;;;;;;
2022/01/08 06:29:56;;;;;;;;;;;;;;;;;;;;;
2022/01/08 06:35:51;;;;;;;;;;;;;;;;;;;;;
2022/01/08 06:41:34;;;;;;;;;;;;;;;;;;;;;
2022/01/08 06:47:09;;;;;;;31.40;12.47;;;;;;;-3.16;100.00;100890.31;9772941;30;20037;-90
2022/01/08 06:52:28;;;;;;;32.03;13.43;;;;;;;-7.85;100.00;100080.59;9763711;30;20059;-92
2022/01/08 06:57:55;;;;;;;27.97;11.83;;;;;;;-5.96;100.00;100414.59;9786952;30;20040;-90
2022/01/08 07:03:24;;;;;;;29.63;13.13;;;;;;;-3.40;100.00;100834.53;9759948;30;20101;-92
2022/01/08 07:08:34;;;;;;;36.13;13.90;;;;;;;-7.62;100.00;100064.88;9832088;30;20444;-93
2022/01/08 07:13:35;;;;;;;33.83;12.60;;;;;;;-8.18;100.00;99905.88;9829575;30;20498;-94
2022/01/08 07:18:45;;;;;;;37.37;14.40;;;;;;;-7.12;100.00;100072.19;9843451;30;20196;-90
2022/01/08 07:23:53;;;;;;;36.57;13.90;;;;;;;-9.58;100.00;99736.78;9829314;30;20040;-91
2022/01/08 07:29:11;;;;;;;35.23;15.20;;;;;;;-5.07;100.00;100358.72;9845614;29;20065;-90
2022/01/08 07:34:17;;;;;;;36.27;14.40;;;;;;;-1.31;100.00;100988.69;9863917;29;20070;-91
2022/01/08 07:39:17;;;;;;;44.30;14.63;;;;;;;-4.65;100.00;100575.34;9864725;29;20043;-91
2022/01/08 07:44:20;;;;;;;36.67;15.07;;;;;;;-4.15;100.00;100570.94;9864096;29;20113;-90
2022/01/08 07:49:25;;;;;;;38.78;14.48;;;;;;;-5.98;100.00;100336.16;9863582;29;20070;-91
2022/01/08 07:54:28;;;;;;;37.13;14.43;;;;;;;-7.03;100.00;99976.75;9863448;29;20047;-90
2022/01/08 07:59:34;;;;;;;36.33;14.27;;;;;;;-8.06;100.00;100053.34;9864700;29;20035;-91
2022/01/08 08:04:40;;;;;;;42.22;14.77;;;;;;;-6.03;100.00;100381.38;9863564;29;20043;-90
2022/01/08 08:10:03;;;;;;;44.93;16.27;;;;;;;-2.13;100.00;100978.03;9844895;30;20048;-91
2022/01/08 08:15:13;;;;;;;38.10;16.27;;;;;;;-4.39;100.00;100580.63;9843119;30;20522;-90
2022/01/08 08:20:16;;;;;;;39.33;14.40;;;;;;;-7.56;100.00;99890.50;9876401;29;20508;-90
2022/01/08 08:25:30;;;;;;;40.77;17.57;;;;;;;-9.32;100.00;99784.00;9875214;29;20443;-89
2022/01/08 08:31:01;;;;;;;;;;;;;;;;;;;;;
2022/01/08 08:36:02;;;;;;;39.30;13.57;;;;;;;-6.98;100.00;100048.53;9873988;29;20053;-86
2022/01/08 08:41:03;;;;;;;35.63;14.47;;;;;;;-7.60;100.00;99977.38;9868485;29;20424;-90
2022/01/08 08:46:06;;;;;;;40.50;15.83;;;;;;;-8.04;100.00;99795.81;9884729;29;20118;-91
2022/01/08 08:51:09;;;;;;;36.53;15.17;;;;;;;-5.51;100.00;100216.81;9883611;29;20154;-89
2022/01/08 08:56:12;;;;;;;46.50;17.07;;;;;;;-5.20;100.00;100251.88;9884145;29;20109;-92
2022/01/08 09:01:20;;;;;;;34.50;14.93;;;;;;;-2.29;100.00;100677.69;9870575;29;20031;-92
2022/01/08 09:06:30;;;;;;;38.27;13.13;;;;;;;-7.66;100.00;99953.94;9878849;29;20039;-93
2022/01/08 09:11:30;;;;;;;34.07;15.27;;;;;;;-6.97;100.00;99838.81;9872509;29;20039;-92
2022/01/08 09:16:34;;;;;;;29.53;12.00;;;;;;;-3.47;100.00;100473.72;9847429;29;20420;-89
2022/01/08 09:21:37;;;;;;;33.23;13.07;;;;;;;-5.65;100.00;100104.84;9869840;29;20092;-89
2022/01/08 09:26:48;;;;;;;23.50;11.63;;;;;;;-7.34;100.00;100110.19;9868320;29;20056;-92
2022/01/08 09:31:49;;;;;;;35.83;12.63;;;;;;;-1.87;100.00;100800.59;9869541;29;20095;-94
2022/01/08 09:36:49;;;;;;;28.93;12.37;;;;;;;-5.77;100.00;100190.13;9868694;29;20134;-92
2022/01/08 09:41:55;;;;;;;23.40;10.00;;;;;;;-6.91;100.00;100022.78;9879894;29;20118;-92
2022/01/08 09:46:56;;;;;;;41.10;11.57;;;;;;;-5.23;100.00;100448.09;9868425;29;20047;-92
2022/01/08 09:51:57;;;;;;;38.10;11.67;;;;;;;-4.66;100.00;100278.19;9867932;29;20055;-91
2022/01/08 09:56:57;;;;;;;19.40;10.87;;;;;;;-4.59;100.00;100166.34;9867907;29;20505;-90
2022/01/08 10:01:59;;;;;;;30.53;10.60;;;;;;;-4.47;100.00;100105.03;9867018;29;20058;-92
2022/01/08 10:07:19;;;;;;;22.93;10.00;;;;;;;-0.04;100.00;100753.88;9867202;29;20058;-89
2022/01/08 10:12:52;;;;;;;26.10;10.17;;;;;;;-4.12;100.00;100285.63;9868012;29;20083;-89
2022/01/08 10:18:38;;;;;;;;;;;;;;;;;;;;;
2022/01/08 10:23:52;;;;;;;;;;;;;;;;;;;;;
2022/01/08 10:29:12;;;;;;;15.37;7.47;;;;;;;-0.68;100.00;100790.38;9883020;29;19921;-90
2022/01/08 10:34:36;;;;;;;19.53;7.47;;;;;;;-8.05;100.00;99360.63;9861981;29;20039;-91
2022/01/08 10:39:45;;;;;;;13.30;7.63;;;;;;;-4.02;100.00;100167.13;9866233;29;20054;-89
2022/01/08 10:44:49;;;;;;;17.00;8.30;;;;;;;-4.48;100.00;99944.88;9865583;29;20035;-89
2022/01/08 10:50:02;;;;;;;22.53;10.10;;;;;;;-3.02;100.00;100190.44;9864837;29;20132;-92
2022/01/08 10:55:08;;;;;;;18.43;8.93;;;;;;;-5.15;100.00;99958.84;9867049;29;20051;-89
2022/01/08 11:00:28;;;;;;;;;;;;;;;;;;;;;
2022/01/08 11:06:13;;;;;;;18.10;8.73;;;;;;;-5.63;100.00;99776.50;9881872;29;20356;-91
2022/01/08 11:11:26;;;;;;;17.07;8.50;;;;;;;-0.72;100.00;100505.22;9866183;29;20051;-93
2022/01/08 11:17:13;;;;;;;22.27;9.77;;;;;;;-3.65;100.00;99986.13;9874547;29;20042;-93
2022/01/08 11:22:48;;;;;;;19.88;9.77;;;;;;;-5.26;100.00;99847.38;9872952;29;20035;-90
2022/01/08 11:28:24;;;;;;;;;;;;;;;;;;;;;
2022/01/08 11:33:55;;;;;;;15.23;9.73;;;;;;;-4.67;100.00;99869.13;9891916;30;20461;-90
2022/01/08 11:40:10;;;;;;;;;;;;;;;;;;;;;
2022/01/08 11:51:53;;;;;;;16.90;8.70;;;;;;;-3.45;100.00;99971.13;9909063;29;20071;-93
2022/01/08 11:57:56;;;;;;;;;;;;;;;;;;;;;
2022/01/08 12:03:35;;;;;;;15.20;8.38;;;;;;;2.19;100.00;100510.97;9860276;29;20039;-93
2022/01/08 12:08:56;;;;;;;;;;;;;;;;;;;;;
2022/01/08 12:14:09;;;;;;;20.88;9.93;;;;;;;1.34;100.00;100400.22;9903342;29;20054;-93
2022/01/08 12:19:36;;;;;;;18.00;8.47;;;;;;;-0.70;100.00;100003.06;9863226;29;20035;-81
2022/01/08 12:25:42;;;;;;;;;;;;;;;;;;;;;
2022/01/08 12:31:07;;;;;;;;;;;;;;;;;;;;;
2022/01/08 12:36:44;;;;;;;;;;;;;;;;;;;;;
2022/01/08 12:55:33;;;;;;;24.85;11.18;;;;;;;-3.26;100.00;99802.84;9834314;30;20410;-90
2022/01/08 13:08:11;;;;;;;;;;;;;;;;;;;;;
2022/01/08 13:14:33;;;;;;;;;;;;;;;;;;;;;
2022/01/08 13:21:17;;;;;;;;;;;;;;;;;;;;;
2022/01/08 13:26:58;;;;;;;;;;;;;;;;;;;;;
2022/01/08 13:39:26;;;;;;;;;;;;;;;;;;;;;
2022/01/08 13:45:27;;;;;;;;;;;;;;;;;;;;;
2022/01/08 13:51:45;;;;;;;;;;;;;;;;;;;;;
2022/01/08 13:57:53;;;;;;;34.57;17.90;;;;;;;1.27;100.00;100429.22;9868010;29;20050;-96
2022/01/08 14:03:22;;;;;;;31.47;17.50;;;;;;;-6.00;100.00;99234.09;9740984;30;20507;-90
2022/01/08 14:08:44;;;;;;;33.75;16.98;;;;;;;-2.88;100.00;99465.09;9758597;30;20037;-90
2022/01/08 14:13:59;;;;;;;33.90;17.33;;;;;;;-4.57;100.00;99304.00;9855577;29;20050;-91
2022/01/08 14:31:31;;;;;;;;;;;;;;;;;;;;;
2022/01/08 14:36:53;;;;;;;33.08;16.20;;;;;;;-0.13;100.00;99975.75;9805124;30;20037;-89
2022/01/08 14:42:03;;;;;;;33.00;16.70;;;;;;;-4.75;100.00;99163.00;9825662;30;20516;-90
2022/01/08 14:54:18;;;;;;;29.90;17.03;;;;;;;1.52;100.00;100068.66;9793885;30;20032;-94
2022/01/08 15:00:09;;;;;;;30.50;16.63;;;;;;;1.50;100.00;100057.19;9777197;30;20052;-95
2022/01/08 15:05:38;;;;;;;;;;;;;;;;;;;;;
2022/01/08 15:11:24;;;;;;;37.53;17.10;;;;;;;-4.73;100.00;99174.38;9816194;30;20068;-91
2022/01/08 15:48:34;;;;;;;40.83;17.57;;;;;;;-5.03;100.00;98979.72;9814287;30;20036;-93
2022/01/08 15:53:56;;;;;;;32.03;14.07;;;;;;;1.22;100.00;99902.97;9811092;29;20040;-95
2022/01/08 16:05:33;;;;;;;;;;;;;;;;;;;;;
2022/01/08 16:11:17;;;;;;;22.57;12.03;;;;;;;-6.54;100.00;98589.28;9823686;30;20098;-96
2022/01/08 16:16:26;;;;;;;40.23;14.70;;;;;;;-6.25;100.00;98881.91;9842643;30;20048;-94
2022/01/08 16:22:37;;;;;;;;;;;;;;;;;;;;;
2022/01/08 16:35:15;;;;;;;;;;;;;;;;;;;;;
2022/01/08 16:41:38;;;;;;;;;;;;;;;;;;;;;
2022/01/08 16:47:52;;;;;;;;;;;;;;;;;;;;;
2022/01/08 16:53:14;;;;;;;20.57;11.50;;;;;;;-7.19;100.00;98549.47;9686290;30;20144;-93
2022/01/08 16:58:35;;;;;;;26.85;15.63;;;;;;;-3.07;100.00;99149.81;9675955;30;20069;-92
2022/01/08 17:03:44;;;;;;;31.87;17.17;;;;;;;1.03;100.00;99953.50;9734240;30;20075;-95
2022/01/08 17:09:46;;;;;;;;;;;;;;;;;;;;;
2022/01/08 17:15:17;;;;;;;;;;;;;;;;;;;;;
2022/01/08 17:20:56;;;;;;;;;;;;;;;;;;;;;
2022/01/08 17:26:12;;;;;;;24.07;14.77;;;;;;;-5.84;100.00;98756.00;9822435;30;20127;-89
2022/01/08 17:31:15;;;;;;;26.80;16.50;;;;;;;-3.56;100.00;99152.91;9809513;30;20048;-93
2022/01/08 17:36:35;;;;;;;25.03;15.70;;;;;;;-5.69;100.00;98702.22;9811811;30;20170;-93
2022/01/08 17:41:45;;;;;;;24.00;15.77;;;;;;;-0.89;100.00;99521.00;9839447;30;20508;-91
2022/01/08 17:52:34;;;;;;;24.33;16.53;;;;;;;-5.28;100.00;98728.06;9858823;30;20039;-93
2022/01/08 17:57:35;;;;;;;26.80;15.82;;;;;;;-3.61;100.00;98833.47;9859095;30;20120;-91
2022/01/08 18:02:35;;;;;;;25.40;16.03;;;;;;;-5.41;100.00;98502.81;9844662;30;20142;-92
2022/01/08 18:07:37;;;;;;;27.33;16.87;;;;;;;-3.22;100.00;98957.28;9857629;30;20051;-86
2022/01/08 18:12:40;;;;;;;23.07;15.67;;;;;;;-4.92;100.00;98694.63;9858162;30;20044;-88
2022/01/08 18:17:41;;;;;;;25.77;16.83;;;;;;;-4.82;100.00;98554.66;9888252;29;20072;-91
2022/01/08 18:22:42;;;;;;;24.97;16.40;;;;;;;-3.34;100.00;98954.44;9860256;30;20071;-91
2022/01/08 18:27:43;;;;;;;23.77;16.27;;;;;;;-2.50;100.00;98934.59;9843929;30;20782;-90
2022/01/08 18:32:44;;;;;;;24.27;16.10;;;;;;;-3.32;100.00;98769.38;9843336;30;20042;-91
2022/01/08 18:37:49;;;;;;;31.07;18.73;;;;;;;-5.97;100.00;98306.72;9859814;30;20489;-88
2022/01/08 18:42:51;;;;;;;28.10;16.55;;;;;;;1.20;100.00;99650.22;9858016;30;20047;-89
2022/01/08 18:47:52;;;;;;;25.70;16.57;;;;;;;-4.77;100.00;98488.56;9843481;30;20086;-90
2022/01/08 18:52:57;;;;;;;25.10;15.87;;;;;;;-3.53;100.00;98725.63;9844131;30;20123;-88
2022/01/08 18:58:05;;;;;;;25.10;16.33;;;;;;;-0.59;100.00;99144.72;9860425;30;20409;-94
2022/01/08 19:03:15;;;;;;;24.47;16.93;;;;;;;-6.13;100.00;98189.31;9844856;30;20047;-89
2022/01/08 19:08:16;;;;;;;27.03;16.77;;;;;;;-2.92;100.00;98888.41;9831209;30;20052;-93
2022/01/08 19:13:32;;;;;;;26.63;17.50;;;;;;;-3.10;100.00;98772.53;9858784;30;20051;-95
2022/01/08 19:18:35;;;;;;;24.30;16.33;;;;;;;-4.94;100.00;98339.78;9846796;30;20091;-91
2022/01/08 19:23:44;;;;;;;26.67;15.80;;;;;;;-3.57;100.00;98524.56;9843766;30;20079;-93
2022/01/08 19:28:51;;;;;;;25.83;17.40;;;;;;;-2.00;100.00;98769.31;9844710;30;20044;-95
2022/01/08 19:34:04;;;;;;;;;;;;;;;;;;;;;
2022/01/08 19:39:48;;;;;;;25.20;16.10;;;;;;;-3.48;100.00;98637.00;9837816;30;20391;-89
2022/01/08 19:45:09;;;;;;;33.67;17.50;;;;;;;-2.93;100.00;98519.78;9845319;30;20050;-88
2022/01/08 19:50:20;;;;;;;22.23;16.07;;;;;;;-4.90;100.00;98274.75;9827042;30;20142;-90
2022/01/08 20:02:06;;;;;;;28.03;16.97;;;;;;;-4.16;100.00;98489.03;9873617;30;20040;-94
2022/01/08 20:08:01;;;;;;;;;;;;;;;;;;;;;
2022/01/08 20:13:38;;;;;;;;;;;;;;;;;;;;;
2022/01/08 20:19:16;;;;;;;;;;;;;;;;;;;;;
2022/01/08 20:25:16;;;;;;;;;;;;;;;;;;;;;
2022/01/08 20:31:13;;;;;;;;;;;;;;;;;;;;;
2022/01/08 20:37:16;;;;;;;;;;;;;;;;;;;;;
2022/01/08 20:49:25;;;;;;;24.20;15.70;;;;;;;-2.42;100.00;98655.09;9763809;30;20064;-93
2022/01/08 20:55:05;;;;;;;;;;;;;;;;;;;;;
2022/01/08 21:00:36;;;;;;;21.58;14.43;;;;;;;-1.59;100.00;98630.19;9844328;30;20048;-91
2022/01/08 21:05:50;;;;;;;23.20;14.65;;;;;;;1.78;100.00;99101.69;9825832;30;20052;-92
2022/01/08 21:11:12;;;;;;;24.37;14.87;;;;;;;-0.53;100.00;98861.88;9830755;30;20064;-90
2022/01/08 21:16:13;;;;;;;20.63;15.07;;;;;;;-3.78;100.00;98098.28;9855526;30;20032;-89
2022/01/08 21:21:41;;;;;;;;;;;;;;;;;;;;;
2022/01/08 21:27:39;;;;;;;21.77;14.50;;;;;;;-1.37;100.00;98721.41;9805344;30;20093;-94
2022/01/08 21:33:02;;;;;;;;;;;;;;;1.82;100.00;98947.38;9795429;30;20486;-93
2022/01/08 21:39:04;;;;;;;;;;;;;;;;;;;;;
2022/01/08 21:44:16;;;;;;;19.63;13.30;;;;;;;-2.43;100.00;98285.16;9830955;30;20055;-95
2022/01/08 21:49:40;;;;;;;19.90;13.95;;;;;;;-2.39;100.00;98307.88;9815260;30;20101;-93
2022/01/08 21:54:59;;;;;;;15.13;10.48;;;;;;;1.94;100.00;98967.13;9811368;30;20074;-95
2022/01/08 22:00:21;;;;;;;21.27;13.27;;;;;;;-6.54;100.00;97550.88;9811726;30;20040;-95
2022/01/08 22:05:37;;;;;;;19.48;12.90;;;;;;;-2.59;100.00;98355.88;9845783;30;20066;-91
2022/01/08 22:18:00;;;;;;;19.20;12.20;;;;;;;-0.18;100.00;98788.94;9807908;30;20110;-91
2022/01/08 22:23:07;;;;;;;16.87;11.37;;;;;;;-5.86;100.00;97773.88;9827409;30;20060;-91
2022/01/08 22:28:15;;;;;;;17.13;12.27;;;;;;;-5.01;100.00;97933.91;9832310;30;20042;-93
2022/01/08 22:33:19;;;;;;;17.25;12.30;;;;;;;-2.33;100.00;98263.00;9859570;30;20074;-90
2022/01/08 22:38:37;;;;;;;16.20;11.33;;;;;;;-2.61;100.00;98355.28;9846780;30;20046;-91
2022/01/08 22:43:45;;;;;;;18.43;12.00;;;;;;;0.53;100.00;98854.59;9830155;30;20050;-91
2022/01/08 22:48:58;;;;;;;17.23;11.60;;;;;;;-2.75;100.00;98242.38;9846457;30;20044;-90
2022/01/08 22:54:07;;;;;;;17.77;11.03;;;;;;;-1.28;100.00;98536.44;9845574;30;20054;-92
2022/01/08 22:59:10;;;;;;;16.47;11.47;;;;;;;-2.40;100.00;98432.88;9830116;30;20043;-92
2022/01/08 23:04:41;;;;;;;18.50;10.77;;;;;;;-1.21;100.00;98337.38;9819617;30;20079;-92
2022/01/08 23:09:46;;;;;;;17.33;10.40;;;;;;;-5.32;100.00;97675.59;9845308;30;20054;-91
2022/01/08 23:14:47;;;;;;;16.20;10.57;;;;;;;-2.17;100.00;98188.69;9844290;30;20488;-91
2022/01/08 23:19:50;;;;;;;18.30;11.80;;;;;;;-1.77;100.00;98333.53;9829244;30;20032;-91
2022/01/08 23:24:51;;;;;;;15.82;10.18;;;;;;;-2.24;100.00;98335.19;9857498;30;20042;-92
2022/01/08 23:30:02;;;;;;;;;;;;;;;;;;;;;
2022/01/08 23:35:06;;;;;;;14.77;9.75;;;;;;;-1.07;100.00;98400.03;9831394;30;20047;-91
2022/01/08 23:40:46;;;;;;;17.25;11.50;;;;;;;0.65;100.00;98626.31;9842746;30;20044;-93
2022/01/08 23:45:47;;;;;;;18.40;11.40;;;;;;;-2.04;100.00;98320.53;9841827;30;20093;-93
2022/01/08 23:50:50;;;;;;;15.00;10.67;;;;;;;-3.26;100.00;98136.19;9828706;30;20127;-92
2022/01/08 23:55:59;;;;;;;16.07;11.20;;;;;;;0.02;100.00;98729.03;9829140;30;20398;-92
